MX-0166 weather

Escárcega Airport
Escárcega, Campeche, Mexico

Public forecast

Using degrees Celsius for public forecast. Weather courtesy of forecast.io.

Closest aviation weather report (METAR) to Escárcega Airport

Closest report is Ciudad del Carmen International Airport, 60.8 nm (112.7 km) W. Retrieved 2019/10/23 18:46 UTC (1 hour ago):

MMCE 231846Z 06004KT 7SM FEW020TCU SCT070 BKN090 30/23 A2984 RMK 8/270 LWR SC

Closest aviation forecast (TAF) to Escárcega Airport

Closest forecast is Ciudad del Carmen International Airport, 60.8 nm (112.7 km) W. Retrieved 2019/10/23 18:40 UTC (1 hour ago):

TAF COR MMCE 231833Z 2318/2418 12012KT P6SM BKN015 BKN090 FM232000 10012KT P6SM BKN020 BKN090 BKN200 TEMPO 2322/2402 4SM RA BKN020 OVC090 FM240300 11015KT 6SM -RA SCT015 OVC090 BECMG 2408/2409 3SM -RA BR BKN010 OVC090 TEMPO 2411/2415 2SM -DZ BR BKN006 OVC012